PRIVATE WETTERSTATION BILLIGHEIM-ALLFELD                       ZURCK
Wetterdaten: Samstag, 25.03.2017
Datum Zeit Temp. A. Temp. A. min Temp. A. max Feuchte A. Luftdruck Regen Wind Richtung Richtung Sonnenschein ET Solar Taupunkt Windchill Windben Empfang
25.03.2017 00:00 3,8 C 3,8 C 3,9 C 91 % 1027,9 hPa 0,0 l/m 0,0 km/h (0 Bft) O-NO 67 0 min 0,000 mm 0 W/m 2,5 C 3,8 C 1,6 km/h (1 Bft) 99 %
25.03.2017 00:10 3,6 C 3,6 C 3,8 C 91 % 1027,9 hPa 0,0 l/m 0,0 km/h (0 Bft) O-NO 67 0 min 0,000 mm 0 W/m 2,3 C 3,6 C 1,6 km/h (1 Bft) 99 %
25.03.2017 00:20 3,4 C 3,4 C 3,6 C 91 % 1027,9 hPa 0,0 l/m 0,0 km/h (0 Bft) N 0 0 min 0,000 mm 0 W/m 2,1 C 3,4 C 0,0 km/h (0 Bft) 100 %
25.03.2017 00:30 3,3 C 3,3 C 3,4 C 91 % 1027,9 hPa 0,0 l/m 0,0 km/h (0 Bft) N 0 0 min 0,000 mm 0 W/m 2,0 C 3,3 C 0,0 km/h (0 Bft) 100 %
25.03.2017 00:40 3,3 C 3,3 C 3,4 C 91 % 1027,8 hPa 0,0 l/m 0,0 km/h (0 Bft) N 0 0 min 0,000 mm 0 W/m 2,0 C 3,3 C 0,0 km/h (0 Bft) 100 %
25.03.2017 00:50 3,3 C 3,3 C 3,3 C 91 % 1027,9 hPa 0,0 l/m 0,0 km/h (0 Bft) N 0 0 min 0,000 mm 0 W/m 2,0 C 3,3 C 0,0 km/h (0 Bft) 100 %
25.03.2017 01:00 3,5 C 3,3 C 3,5 C 91 % 1027,8 hPa 0,0 l/m 0,0 km/h (0 Bft) O-NO 67 0 min 0,000 mm 0 W/m 2,2 C 3,5 C 1,6 km/h (1 Bft) 91 %
25.03.2017 01:10 3,8 C 3,5 C 3,8 C 91 % 1028,0 hPa 0,0 l/m 0,0 km/h (0 Bft) N 0 0 min 0,000 mm 0 W/m 2,5 C 3,8 C 0,0 km/h (0 Bft) 99 %
25.03.2017 01:20 4,2 C 3,9 C 4,2 C 91 % 1027,9 hPa 0,0 l/m 0,0 km/h (0 Bft) NO 45 0 min 0,000 mm 0 W/m 2,9 C 4,2 C 3,2 km/h (1 Bft) 100 %
25.03.2017 01:30 4,6 C 4,2 C 4,6 C 91 % 1027,9 hPa 0,0 l/m 1,6 km/h (1 Bft) NO 45 0 min 0,000 mm 0 W/m 3,3 C 4,6 C 6,4 km/h (2 Bft) 100 %
25.03.2017 01:40 4,6 C 4,6 C 4,6 C 91 % 1027,7 hPa 0,0 l/m 0,0 km/h (0 Bft) NO 45 0 min 0,000 mm 0 W/m 3,3 C 4,6 C 4,8 km/h (1 Bft) 100 %
25.03.2017 01:50 4,6 C 4,6 C 4,6 C 90 % 1027,7 hPa 0,0 l/m 0,0 km/h (0 Bft) N 0 0 min 0,000 mm 0 W/m 3,1 C 4,6 C 0,0 km/h (0 Bft) 100 %
25.03.2017 02:00 4,4 C 4,4 C 4,5 C 90 % 1027,5 hPa 0,0 l/m 1,6 km/h (1 Bft) NO 45 0 min 0,000 mm 0 W/m 2,9 C 4,4 C 6,4 km/h (2 Bft) 100 %
25.03.2017 02:10 4,4 C 4,4 C 4,4 C 90 % 1027,5 hPa 0,0 l/m 3,2 km/h (1 Bft) NO 45 0 min 0,000 mm 0 W/m 2,9 C 4,4 C 9,7 km/h (2 Bft) 99 %
25.03.2017 02:20 4,3 C 4,3 C 4,4 C 90 % 1027,6 hPa 0,0 l/m 0,0 km/h (0 Bft) NO 45 0 min 0,000 mm 0 W/m 2,8 C 4,3 C 4,8 km/h (1 Bft) 100 %
25.03.2017 02:30 4,2 C 4,2 C 4,3 C 90 % 1027,5 hPa 0,0 l/m 0,0 km/h (0 Bft) NO 45 0 min 0,000 mm 0 W/m 2,7 C 4,2 C 8,0 km/h (2 Bft) 100 %
25.03.2017 02:40 4,1 C 4,1 C 4,2 C 90 % 1027,2 hPa 0,0 l/m 1,6 km/h (1 Bft) N-NO 22 0 min 0,000 mm 0 W/m 2,6 C 4,1 C 8,0 km/h (2 Bft) 100 %
25.03.2017 02:50 4,1 C 4,1 C 4,1 C 90 % 1027,2 hPa 0,0 l/m 0,0 km/h (0 Bft) N-NO 22 0 min 0,000 mm 0 W/m 2,6 C 4,1 C 1,6 km/h (1 Bft) 89 %
25.03.2017 03:00 4,0 C 4,0 C 4,1 C 90 % 1027,1 hPa 0,0 l/m 0,0 km/h (0 Bft) NO 45 0 min 0,000 mm 0 W/m 2,5 C 4,0 C 1,6 km/h (1 Bft) 100 %
25.03.2017 03:10 4,0 C 4,0 C 4,0 C 90 % 1027,1 hPa 0,0 l/m 1,6 km/h (1 Bft) NO 45 0 min 0,000 mm 0 W/m 2,5 C 4,0 C 9,7 km/h (2 Bft) 100 %
25.03.2017 03:20 4,0 C 4,0 C 4,0 C 90 % 1027,0 hPa 0,0 l/m 1,6 km/h (1 Bft) NO 45 0 min 0,000 mm 0 W/m 2,5 C 4,0 C 6,4 km/h (2 Bft) 100 %
25.03.2017 03:30 4,0 C 3,9 C 4,0 C 90 % 1026,9 hPa 0,0 l/m 3,2 km/h (1 Bft) NO 45 0 min 0,000 mm 0 W/m 2,5 C 4,0 C 11,3 km/h (2 Bft) 100 %
25.03.2017 03:40 3,9 C 3,9 C 4,1 C 90 % 1026,9 hPa 0,0 l/m 1,6 km/h (1 Bft) N-NO 22 0 min 0,000 mm 0 W/m 2,4 C 3,9 C 14,5 km/h (3 Bft) 100 %
25.03.2017 03:50 3,8 C 3,8 C 4,0 C 89 % 1026,9 hPa 0,0 l/m 0,0 km/h (0 Bft) NO 45 0 min 0,000 mm 0 W/m 2,2 C 3,8 C 3,2 km/h (1 Bft) 100 %
25.03.2017 04:00 3,6 C 3,6 C 3,8 C 90 % 1026,9 hPa 0,0 l/m 0,0 km/h (0 Bft) N 0 0 min 0,000 mm 0 W/m 2,1 C 3,6 C 0,0 km/h (0 Bft) 100 %
25.03.2017 04:10 3,4 C 3,4 C 3,6 C 90 % 1026,9 hPa 0,0 l/m 0,0 km/h (0 Bft) N 0 0 min 0,000 mm 0 W/m 1,9 C 3,4 C 0,0 km/h (0 Bft) 100 %
25.03.2017 04:20 3,2 C 3,2 C 3,4 C 91 % 1026,9 hPa 0,0 l/m 0,0 km/h (0 Bft) NO 45 0 min 0,000 mm 0 W/m 1,9 C 3,2 C 4,8 km/h (1 Bft) 100 %
25.03.2017 04:30 3,2 C 3,2 C 3,2 C 91 % 1026,8 hPa 0,0 l/m 0,0 km/h (0 Bft) NO 45 0 min 0,000 mm 0 W/m 1,9 C 3,2 C 6,4 km/h (2 Bft) 90 %
25.03.2017 04:40 3,2 C 3,2 C 3,2 C 91 % 1026,8 hPa 0,0 l/m 1,6 km/h (1 Bft) NO 45 0 min 0,000 mm 0 W/m 1,9 C 3,2 C 8,0 km/h (2 Bft) 100 %
25.03.2017 04:50 3,2 C 3,2 C 3,2 C 91 % 1027,0 hPa 0,0 l/m 3,2 km/h (1 Bft) NO 45 0 min 0,000 mm 0 W/m 1,9 C 3,2 C 8,0 km/h (2 Bft) 100 %
25.03.2017 05:00 3,2 C 3,2 C 3,2 C 91 % 1026,8 hPa 0,0 l/m 3,2 km/h (1 Bft) NO 45 0 min 0,000 mm 0 W/m 1,9 C 3,2 C 8,0 km/h (2 Bft) 100 %
25.03.2017 05:10 3,2 C 3,2 C 3,3 C 91 % 1026,7 hPa 0,0 l/m 3,2 km/h (1 Bft) NO 45 0 min 0,000 mm 0 W/m 1,9 C 3,2 C 9,7 km/h (2 Bft) 100 %
25.03.2017 05:20 3,3 C 3,2 C 3,3 C 91 % 1026,6 hPa 0,0 l/m 4,8 km/h (1 Bft) NO 45 0 min 0,000 mm 0 W/m 2,0 C 3,3 C 8,0 km/h (2 Bft) 100 %
25.03.2017 05:30 3,2 C 3,2 C 3,3 C 91 % 1026,7 hPa 0,0 l/m 3,2 km/h (1 Bft) NO 45 0 min 0,000 mm 0 W/m 1,9 C 3,2 C 9,7 km/h (2 Bft) 100 %
25.03.2017 05:40 3,1 C 3,1 C 3,2 C 90 % 1026,8 hPa 0,0 l/m 0,0 km/h (0 Bft) NO 45 0 min 0,000 mm 0 W/m 1,6 C 3,1 C 6,4 km/h (2 Bft) 100 %
25.03.2017 05:50 3,1 C 3,1 C 3,1 C 91 % 1026,6 hPa 0,0 l/m 1,6 km/h (1 Bft) NO 45 0 min 0,000 mm 0 W/m 1,8 C 3,1 C 6,4 km/h (2 Bft) 100 %
25.03.2017 06:00 3,1 C 3,1 C 3,1 C 91 % 1026,7 hPa 0,0 l/m 0,0 km/h (0 Bft) NO 45 0 min 0,000 mm 0 W/m 1,8 C 3,1 C 6,4 km/h (2 Bft) 100 %
25.03.2017 06:10 2,9 C 2,9 C 3,1 C 91 % 1026,7 hPa 0,0 l/m 0,0 km/h (0 Bft) NO 45 0 min 0,000 mm 0 W/m 1,6 C 2,9 C 1,6 km/h (1 Bft) 90 %
25.03.2017 06:20 2,8 C 2,8 C 2,9 C 91 % 1026,5 hPa 0,0 l/m 0,0 km/h (0 Bft) N 0 0 min 0,000 mm 0 W/m 1,5 C 2,8 C 0,0 km/h (0 Bft) 100 %
25.03.2017 06:30 2,7 C 2,7 C 2,8 C 91 % 1026,6 hPa 0,0 l/m 0,0 km/h (0 Bft) NO 45 0 min 0,000 mm 12 W/m 1,4 C 2,7 C 1,6 km/h (1 Bft) 100 %
25.03.2017 06:40 2,7 C 2,7 C 2,7 C 91 % 1026,7 hPa 0,0 l/m 0,0 km/h (0 Bft) NO 45 0 min 0,000 mm 21 W/m 1,4 C 2,7 C 3,2 km/h (1 Bft) 100 %
25.03.2017 06:50 2,8 C 2,7 C 2,8 C 91 % 1026,8 hPa 0,0 l/m 1,6 km/h (1 Bft) NO 45 0 min 0,000 mm 32 W/m 1,5 C 2,8 C 8,0 km/h (2 Bft) 100 %
25.03.2017 07:00 2,9 C 2,8 C 2,9 C 91 % 1026,7 hPa 0,0 l/m 1,6 km/h (1 Bft) NO 45 0 min 0,000 mm 39 W/m 1,6 C 2,9 C 8,0 km/h (2 Bft) 100 %
25.03.2017 07:10 3,1 C 2,9 C 3,1 C 91 % 1026,8 hPa 0,0 l/m 1,6 km/h (1 Bft) NO 45 0 min 0,000 mm 47 W/m 1,8 C 3,1 C 6,4 km/h (2 Bft) 100 %
25.03.2017 07:20 3,2 C 3,1 C 3,2 C 91 % 1026,8 hPa 0,0 l/m 3,2 km/h (1 Bft) NO 45 0 min 0,000 mm 58 W/m 1,9 C 3,2 C 9,7 km/h (2 Bft) 100 %
25.03.2017 07:30 3,4 C 3,2 C 3,4 C 91 % 1026,8 hPa 0,0 l/m 4,8 km/h (1 Bft) NO 45 0 min 0,000 mm 67 W/m 2,1 C 3,4 C 11,3 km/h (2 Bft) 100 %
25.03.2017 07:40 3,7 C 3,4 C 3,7 C 91 % 1026,7 hPa 0,0 l/m 4,8 km/h (1 Bft) NO 45 0 min 0,000 mm 139 W/m 2,4 C 3,7 C 8,0 km/h (2 Bft) 99 %
25.03.2017 07:50 4,1 C 3,7 C 4,1 C 90 % 1026,9 hPa 0,0 l/m 4,8 km/h (1 Bft) NO 45 10 min 0,000 mm 186 W/m 2,6 C 4,1 C 9,7 km/h (2 Bft) 100 %
25.03.2017 08:00 4,6 C 4,1 C 4,6 C 88 % 1026,8 hPa 0,0 l/m 4,8 km/h (1 Bft) NO 45 10 min 0,051 mm 221 W/m 2,8 C 4,6 C 14,5 km/h (3 Bft) 100 %
25.03.2017 08:10 5,1 C 4,6 C 5,1 C 87 % 1026,8 hPa 0,0 l/m 3,2 km/h (1 Bft) NO 45 10 min 0,000 mm 239 W/m 3,1 C 5,1 C 9,7 km/h (2 Bft) 100 %
25.03.2017 08:20 5,4 C 5,1 C 5,4 C 86 % 1026,8 hPa 0,0 l/m 4,8 km/h (1 Bft) NO 45 10 min 0,000 mm 260 W/m 3,3 C 5,4 C 14,5 km/h (3 Bft) 100 %
25.03.2017 08:30 5,7 C 5,4 C 5,7 C 85 % 1026,7 hPa 0,0 l/m 6,4 km/h (2 Bft) NO 45 10 min 0,000 mm 306 W/m 3,4 C 5,7 C 14,5 km/h (3 Bft) 97 %
25.03.2017 08:40 6,1 C 5,7 C 6,1 C 84 % 1026,8 hPa 0,0 l/m 4,8 km/h (1 Bft) NO 45 10 min 0,000 mm 343 W/m 3,6 C 6,1 C 11,3 km/h (2 Bft) 98 %
25.03.2017 08:50 6,5 C 6,1 C 6,5 C 83 % 1026,8 hPa 0,0 l/m 4,8 km/h (1 Bft) NO 45 10 min 0,000 mm 364 W/m 3,8 C 6,5 C 16,1 km/h (3 Bft) 97 %
25.03.2017 09:00 7,0 C 6,5 C 7,0 C 81 % 1026,8 hPa 0,0 l/m 3,2 km/h (1 Bft) NO 45 10 min 0,127 mm 401 W/m 4,0 C 7,0 C 14,5 km/h (3 Bft) 98 %
25.03.2017 09:10 7,6 C 7,0 C 7,6 C 80 % 1026,7 hPa 0,0 l/m 1,6 km/h (1 Bft) NO 45 10 min 0,000 mm 424 W/m 4,4 C 7,6 C 11,3 km/h (2 Bft) 98 %
25.03.2017 09:20 8,1 C 7,6 C 8,1 C 78 % 1026,7 hPa 0,0 l/m 3,2 km/h (1 Bft) NO 45 10 min 0,000 mm 438 W/m 4,5 C 8,1 C 14,5 km/h (3 Bft) 97 %
25.03.2017 09:30 8,5 C 8,1 C 8,5 C 77 % 1026,5 hPa 0,0 l/m 3,2 km/h (1 Bft) NO 45 10 min 0,000 mm 464 W/m 4,7 C 8,5 C 14,5 km/h (3 Bft) 97 %
25.03.2017 09:40 8,9 C 8,6 C 8,9 C 74 % 1026,5 hPa 0,0 l/m 3,2 km/h (1 Bft) NO 45 10 min 0,000 mm 512 W/m 4,5 C 8,9 C 16,1 km/h (3 Bft) 97 %
25.03.2017 09:50 9,1 C 8,9 C 9,1 C 74 % 1026,4 hPa 0,0 l/m 4,8 km/h (1 Bft) NO 45 10 min 0,000 mm 534 W/m 4,7 C 9,1 C 11,3 km/h (2 Bft) 98 %
25.03.2017 10:00 9,2 C 9,1 C 9,2 C 74 % 1026,1 hPa 0,0 l/m 4,8 km/h (1 Bft) NO 45 10 min 0,203 mm 552 W/m 4,8 C 9,2 C 14,5 km/h (3 Bft) 98 %
25.03.2017 10:10 9,3 C 9,2 C 9,3 C 73 % 1026,0 hPa 0,0 l/m 4,8 km/h (1 Bft) NO 45 10 min 0,000 mm 585 W/m 4,7 C 9,3 C 14,5 km/h (3 Bft) 98 %
25.03.2017 10:20 9,6 C 9,3 C 9,6 C 72 % 1025,9 hPa 0,0 l/m 4,8 km/h (1 Bft) NO 45 10 min 0,000 mm 601 W/m 4,8 C 9,6 C 12,9 km/h (3 Bft) 98 %
25.03.2017 10:30 9,7 C 9,6 C 9,7 C 70 % 1025,9 hPa 0,0 l/m 4,8 km/h (1 Bft) NO 45 10 min 0,000 mm 626 W/m 4,5 C 9,7 C 16,1 km/h (3 Bft) 97 %
25.03.2017 10:40 9,9 C 9,7 C 9,9 C 69 % 1025,8 hPa 0,0 l/m 6,4 km/h (2 Bft) NO 45 10 min 0,000 mm 642 W/m 4,5 C 9,9 C 19,3 km/h (3 Bft) 98 %
25.03.2017 10:50 10,2 C 9,9 C 10,2 C 67 % 1025,8 hPa 0,0 l/m 4,8 km/h (1 Bft) NO 45 10 min 0,000 mm 652 W/m 4,4 C 10,2 C 16,1 km/h (3 Bft) 97 %
25.03.2017 11:00 10,6 C 10,2 C 10,6 C 69 % 1025,6 hPa 0,0 l/m 4,8 km/h (1 Bft) NO 45 10 min 0,305 mm 661 W/m 5,2 C 10,6 C 14,5 km/h (3 Bft) 99 %
25.03.2017 11:10 10,8 C 10,6 C 10,8 C 67 % 1025,5 hPa 0,0 l/m 6,4 km/h (2 Bft) NO 45 10 min 0,000 mm 675 W/m 4,9 C 10,8 C 17,7 km/h (3 Bft) 100 %
25.03.2017 11:20 11,1 C 10,8 C 11,1 C 67 % 1025,4 hPa 0,0 l/m 3,2 km/h (1 Bft) NO 45 10 min 0,000 mm 680 W/m 5,2 C 11,1 C 11,3 km/h (2 Bft) 99 %
25.03.2017 11:30 11,1 C 10,8 C 11,1 C 65 % 1025,4 hPa 0,0 l/m 6,3 km/h (2 Bft) NO 45 10 min 0,000 mm 650 W/m 4,8 C 11,1 C 12,9 km/h (3 Bft) 100 %
25.03.2017 11:40 11,4 C 11,1 C 11,4 C 62 % 1025,3 hPa 0,0 l/m 7,4 km/h (2 Bft) NO 45 10 min 0,000 mm 679 W/m 4,4 C 10,7 C 24,1 km/h (4 Bft) 100 %
25.03.2017 11:50 11,8 C 11,4 C 11,8 C 61 % 1025,2 hPa 0,0 l/m 8,0 km/h (2 Bft) O-NO 76 10 min 0,000 mm 663 W/m 4,5 C 10,7 C 22,5 km/h (4 Bft) 100 %
25.03.2017 12:00 12,2 C 11,8 C 12,3 C 59 % 1025,1 hPa 0,0 l/m 5,4 km/h (1 Bft) O-NO 74 10 min 0,330 mm 696 W/m 4,4 C 12,2 C 24,1 km/h (4 Bft) 100 %
25.03.2017 12:10 12,7 C 12,2 C 12,7 C 58 % 1025,0 hPa 0,0 l/m 5,2 km/h (1 Bft) NO 42 10 min 0,000 mm 680 W/m 4,7 C 12,7 C 20,9 km/h (4 Bft) 100 %
25.03.2017 12:20 12,9 C 12,7 C 12,9 C 53 % 1024,8 hPa 0,0 l/m 8,0 km/h (2 Bft) NO 53 10 min 0,000 mm 701 W/m 3,6 C 11,9 C 19,3 km/h (3 Bft) 100 %
25.03.2017 12:30 12,9 C 12,8 C 12,9 C 54 % 1024,8 hPa 0,0 l/m 6,3 km/h (2 Bft) NO 56 10 min 0,000 mm 645 W/m 3,8 C 12,9 C 17,7 km/h (3 Bft) 100 %
25.03.2017 12:40 13,3 C 12,9 C 13,3 C 55 % 1024,6 hPa 0,0 l/m 4,9 km/h (1 Bft) NO 45 10 min 0,000 mm 701 W/m 4,5 C 13,3 C 22,5 km/h (4 Bft) 100 %
25.03.2017 12:50 13,3 C 13,3 C 13,3 C 49 % 1024,4 hPa 0,0 l/m 6,0 km/h (2 Bft) N-NO 20 10 min 0,000 mm 661 W/m 2,8 C 13,3 C 25,7 km/h (4 Bft) 100 %
25.03.2017 13:00 13,4 C 13,3 C 13,4 C 53 % 1024,2 hPa 0,0 l/m 7,9 km/h (2 Bft) NO 38 10 min 0,381 mm 661 W/m 4,0 C 12,5 C 17,7 km/h (3 Bft) 100 %
25.03.2017 13:10 13,4 C 13,4 C 13,4 C 53 % 1023,9 hPa 0,0 l/m 9,7 km/h (2 Bft) NO 55 10 min 0,000 mm 652 W/m 4,0 C 11,5 C 27,4 km/h (4 Bft) 100 %
25.03.2017 13:20 13,4 C 13,4 C 13,4 C 52 % 1023,9 hPa 0,0 l/m 9,4 km/h (2 Bft) NO 38 10 min 0,000 mm 650 W/m 3,7 C 11,7 C 20,9 km/h (4 Bft) 100 %
25.03.2017 13:30 13,6 C 13,4 C 13,6 C 52 % 1023,8 hPa 0,0 l/m 6,6 km/h (2 Bft) NO 44 10 min 0,000 mm 671 W/m 3,9 C 13,5 C 19,3 km/h (3 Bft) 100 %
25.03.2017 13:40 13,9 C 13,6 C 13,9 C 52 % 1023,7 hPa 0,0 l/m 6,4 km/h (2 Bft) NO 40 10 min 0,000 mm 605 W/m 4,2 C 13,9 C 24,1 km/h (4 Bft) 100 %
25.03.2017 13:50 13,9 C 13,9 C 13,9 C 53 % 1023,5 hPa 0,0 l/m 4,9 km/h (1 Bft) N-NW 345 10 min 0,000 mm 606 W/m 4,5 C 13,9 C 14,5 km/h (3 Bft) 100 %
25.03.2017 14:00 13,9 C 13,9 C 14,0 C 48 % 1023,3 hPa 0,0 l/m 8,5 km/h (2 Bft) NO 44 10 min 0,356 mm 580 W/m 3,1 C 12,7 C 19,3 km/h (3 Bft) 100 %
25.03.2017 14:10 13,9 C 13,8 C 13,9 C 50 % 1023,1 hPa 0,0 l/m 6,7 km/h (2 Bft) NO 49 10 min 0,000 mm 578 W/m 3,7 C 13,7 C 19,3 km/h (3 Bft) 100 %
25.03.2017 14:20 14,3 C 13,9 C 14,3 C 46 % 1023,0 hPa 0,0 l/m 4,4 km/h (1 Bft) O-SO 123 10 min 0,000 mm 564 W/m 2,8 C 14,3 C 20,9 km/h (4 Bft) 100 %
25.03.2017 14:30 14,6 C 14,3 C 14,6 C 50 % 1023,0 hPa 0,0 l/m 3,3 km/h (1 Bft) NO 52 10 min 0,000 mm 548 W/m 4,3 C 14,6 C 19,3 km/h (3 Bft) 100 %
25.03.2017 14:40 15,0 C 14,6 C 15,0 C 43 % 1022,9 hPa 0,0 l/m 3,5 km/h (1 Bft) O-NO 75 10 min 0,000 mm 311 W/m 2,5 C 15,0 C 17,7 km/h (3 Bft) 100 %
25.03.2017 14:50 15,0 C 15,0 C 15,1 C 42 % 1022,6 hPa 0,0 l/m 6,5 km/h (2 Bft) O-NO 63 0 min 0,000 mm 97 W/m 2,2 C 15,0 C 25,7 km/h (4 Bft) 100 %
25.03.2017 15:00 15,1 C 15,0 C 15,1 C 44 % 1022,5 hPa 0,0 l/m 3,4 km/h (1 Bft) N-NO 33 0 min 0,254 mm 84 W/m 2,9 C 15,1 C 20,9 km/h (4 Bft) 100 %
25.03.2017 15:10 15,1 C 15,1 C 15,1 C 42 % 1022,2 hPa 0,0 l/m 2,7 km/h (1 Bft) NO 55 0 min 0,000 mm 79 W/m 2,3 C 15,1 C 16,1 km/h (3 Bft) 99 %
25.03.2017 15:20 15,1 C 15,1 C 15,1 C 42 % 1022,1 hPa 0,0 l/m 3,3 km/h (1 Bft) NO 41 0 min 0,000 mm 76 W/m 2,3 C 15,1 C 20,9 km/h (4 Bft) 100 %
25.03.2017 15:30 15,0 C 15,0 C 15,1 C 40 % 1022,1 hPa 0,0 l/m 6,1 km/h (2 Bft) NO 36 0 min 0,000 mm 72 W/m 1,5 C 15,0 C 25,7 km/h (4 Bft) 100 %
25.03.2017 15:40 14,9 C 14,9 C 15,1 C 42 % 1021,9 hPa 0,0 l/m 6,5 km/h (2 Bft) NO 34 0 min 0,000 mm 70 W/m 2,1 C 14,9 C 27,4 km/h (4 Bft) 100 %
25.03.2017 15:50 14,8 C 14,8 C 14,9 C 41 % 1021,9 hPa 0,0 l/m 4,6 km/h (1 Bft) NO 51 0 min 0,000 mm 67 W/m 1,7 C 14,8 C 16,1 km/h (3 Bft) 100 %
25.03.2017 16:00 14,8 C 14,8 C 14,8 C 42 % 1021,7 hPa 0,0 l/m 6,4 km/h (2 Bft) N-NO 32 0 min 0,076 mm 62 W/m 2,0 C 14,8 C 16,1 km/h (3 Bft) 100 %
25.03.2017 16:10 14,7 C 14,7 C 14,8 C 43 % 1021,6 hPa 0,0 l/m 5,9 km/h (2 Bft) N-NO 25 0 min 0,000 mm 58 W/m 2,3 C 14,7 C 17,7 km/h (3 Bft) 100 %
25.03.2017 16:20 14,7 C 14,7 C 14,7 C 44 % 1021,6 hPa 0,0 l/m 3,9 km/h (1 Bft) O-NO 63 0 min 0,000 mm 58 W/m 2,6 C 14,7 C 32,2 km/h (5 Bft) 100 %
25.03.2017 16:30 14,7 C 14,7 C 14,8 C 41 % 1021,5 hPa 0,0 l/m 3,4 km/h (1 Bft) NO 49 0 min 0,000 mm 56 W/m 1,6 C 14,7 C 17,7 km/h (3 Bft) 100 %
25.03.2017 16:40 14,7 C 14,7 C 14,7 C 41 % 1021,3 hPa 0,0 l/m 3,3 km/h (1 Bft) NO 42 0 min 0,000 mm 54 W/m 1,6 C 14,7 C 17,7 km/h (3 Bft) 100 %
25.03.2017 16:50 14,5 C 14,5 C 14,7 C 44 % 1021,3 hPa 0,0 l/m 4,9 km/h (1 Bft) NO 52 0 min 0,000 mm 54 W/m 2,4 C 14,5 C 17,7 km/h (3 Bft) 100 %
25.03.2017 17:00 14,5 C 14,4 C 14,6 C 43 % 1021,1 hPa 0,0 l/m 2,6 km/h (1 Bft) NO 39 0 min 0,000 mm 54 W/m 2,1 C 14,5 C 17,7 km/h (3 Bft) 99 %
25.03.2017 17:10 14,3 C 14,3 C 14,5 C 43 % 1021,0 hPa 0,0 l/m 5,6 km/h (1 Bft) NO 44 0 min 0,076 mm 53 W/m 1,9 C 14,3 C 14,5 km/h (3 Bft) 100 %
25.03.2017 17:20 14,2 C 14,2 C 14,3 C 42 % 1021,0 hPa 0,0 l/m 4,7 km/h (1 Bft) O-NO 61 0 min 0,000 mm 49 W/m 1,5 C 14,2 C 22,5 km/h (4 Bft) 100 %
25.03.2017 17:30 14,0 C 14,0 C 14,2 C 45 % 1020,8 hPa 0,0 l/m 3,8 km/h (1 Bft) NO 53 0 min 0,000 mm 47 W/m 2,3 C 14,0 C 14,5 km/h (3 Bft) 100 %
25.03.2017 17:40 13,9 C 13,9 C 14,0 C 44 % 1020,8 hPa 0,0 l/m 1,9 km/h (1 Bft) NO 54 0 min 0,000 mm 42 W/m 1,9 C 13,9 C 11,3 km/h (2 Bft) 100 %
25.03.2017 17:50 13,8 C 13,8 C 13,9 C 46 % 1020,7 hPa 0,0 l/m 2,7 km/h (1 Bft) NO 38 0 min 0,000 mm 37 W/m 2,4 C 13,8 C 19,3 km/h (3 Bft) 99 %
25.03.2017 18:00 13,6 C 13,6 C 13,8 C 46 % 1020,7 hPa 0,0 l/m 1,3 km/h (1 Bft) N-NO 30 0 min 0,051 mm 30 W/m 2,2 C 13,6 C 14,5 km/h (3 Bft) 100 %
25.03.2017 18:10 13,4 C 13,4 C 13,6 C 47 % 1020,5 hPa 0,0 l/m 1,9 km/h (1 Bft) N-NO 15 0 min 0,000 mm 23 W/m 2,3 C 13,4 C 12,9 km/h (3 Bft) 100 %
25.03.2017 18:20 13,1 C 13,1 C 13,4 C 47 % 1020,5 hPa 0,0 l/m 0,6 km/h (0 Bft) NO 38 0 min 0,000 mm 16 W/m 2,0 C 13,1 C 6,4 km/h (2 Bft) 100 %
25.03.2017 18:30 12,8 C 12,8 C 13,1 C 49 % 1020,6 hPa 0,0 l/m 0,2 km/h (0 Bft) NO 40 0 min 0,000 mm 11 W/m 2,4 C 12,8 C 8,0 km/h (2 Bft) 100 %
25.03.2017 18:40 12,4 C 12,4 C 12,8 C 51 % 1020,6 hPa 0,0 l/m 0,0 km/h (0 Bft) NO 42 0 min 0,000 mm 0 W/m 2,6 C 12,4 C 3,2 km/h (1 Bft) 100 %
25.03.2017 18:50 11,9 C 11,9 C 12,4 C 54 % 1020,7 hPa 0,0 l/m 0,4 km/h (0 Bft) NO 44 0 min 0,000 mm 0 W/m 2,9 C 11,9 C 6,4 km/h (2 Bft) 100 %
25.03.2017 19:00 11,4 C 11,4 C 11,9 C 55 % 1020,6 hPa 0,0 l/m 0,1 km/h (0 Bft) NO 35 0 min 0,025 mm 0 W/m 2,7 C 11,4 C 3,2 km/h (1 Bft) 100 %
25.03.2017 19:10 11,1 C 11,1 C 11,4 C 57 % 1020,6 hPa 0,0 l/m 0,1 km/h (0 Bft) NO 40 0 min 0,000 mm 0 W/m 2,9 C 11,1 C 4,8 km/h (1 Bft) 100 %
25.03.2017 19:20 10,6 C 10,6 C 11,1 C 59 % 1020,6 hPa 0,0 l/m 0,0 km/h (0 Bft) NO 40 0 min 0,000 mm 0 W/m 2,9 C 10,6 C 0,0 km/h (0 Bft) 100 %
25.03.2017 19:30 10,2 C 10,2 C 10,6 C 60 % 1020,6 hPa 0,0 l/m 0,0 km/h (0 Bft) NO 40 0 min 0,000 mm 0 W/m 2,8 C 10,2 C 1,6 km/h (1 Bft) 100 %
25.03.2017 19:40 9,9 C 9,9 C 10,2 C 60 % 1020,6 hPa 0,0 l/m 0,0 km/h (0 Bft) NO 40 0 min 0,000 mm 0 W/m 2,5 C 9,9 C 0,0 km/h (0 Bft) 100 %
25.03.2017 19:50 9,7 C 9,7 C 9,9 C 60 % 1020,7 hPa 0,0 l/m 0,0 km/h (0 Bft) NO 40 0 min 0,000 mm 0 W/m 2,3 C 9,7 C 0,0 km/h (0 Bft) 100 %
25.03.2017 20:00 9,6 C 9,6 C 9,7 C 60 % 1020,6 hPa 0,0 l/m 0,0 km/h (0 Bft) NO 40 0 min 0,000 mm 0 W/m 2,2 C 9,6 C 0,0 km/h (0 Bft) 100 %
25.03.2017 20:10 9,4 C 9,4 C 9,6 C 62 % 1020,7 hPa 0,0 l/m 0,0 km/h (0 Bft) NO 40 0 min 0,000 mm 0 W/m 2,5 C 9,4 C 0,0 km/h (0 Bft) 100 %
25.03.2017 20:20 9,0 C 9,0 C 9,4 C 63 % 1020,7 hPa 0,0 l/m 0,0 km/h (0 Bft) NO 40 0 min 0,000 mm 0 W/m 2,3 C 9,0 C 1,6 km/h (1 Bft) 100 %
25.03.2017 20:30 8,7 C 8,7 C 9,0 C 63 % 1020,7 hPa 0,0 l/m 0,0 km/h (0 Bft) NO 39 0 min 0,000 mm 0 W/m 2,1 C 8,7 C 0,0 km/h (0 Bft) 100 %
25.03.2017 20:40 8,5 C 8,5 C 8,7 C 63 % 1020,8 hPa 0,0 l/m 0,6 km/h (0 Bft) NO 40 0 min 0,000 mm 0 W/m 1,9 C 8,5 C 6,4 km/h (2 Bft) 100 %
25.03.2017 20:50 8,6 C 8,4 C 8,6 C 62 % 1020,9 hPa 0,0 l/m 0,7 km/h (0 Bft) NO 37 0 min 0,000 mm 0 W/m 1,7 C 8,6 C 6,4 km/h (2 Bft) 100 %
25.03.2017 21:00 8,8 C 8,6 C 8,8 C 62 % 1020,9 hPa 0,0 l/m 1,3 km/h (1 Bft) NO 36 0 min 0,026 mm 0 W/m 1,9 C 8,8 C 8,0 km/h (2 Bft) 100 %
25.03.2017 21:10 8,9 C 8,8 C 8,9 C 61 % 1020,9 hPa 0,0 l/m 0,0 km/h (0 Bft) NO 45 0 min 0,000 mm 0 W/m 1,8 C 8,9 C 8,0 km/h (2 Bft) 100 %
25.03.2017 21:20 8,9 C 8,9 C 9,0 C 60 % 1020,9 hPa 0,0 l/m 0,0 km/h (0 Bft) NO 45 0 min 0,000 mm 0 W/m 1,6 C 8,9 C 8,0 km/h (2 Bft) 100 %
25.03.2017 21:30 8,9 C 8,9 C 8,9 C 60 % 1020,9 hPa 0,0 l/m 1,6 km/h (1 Bft) NO 45 0 min 0,000 mm 0 W/m 1,6 C 8,9 C 14,5 km/h (3 Bft) 100 %
25.03.2017 21:40 9,0 C 8,9 C 9,0 C 60 % 1020,8 hPa 0,0 l/m 1,6 km/h (1 Bft) NO 45 0 min 0,000 mm 0 W/m 1,7 C 9,0 C 9,7 km/h (2 Bft) 100 %
25.03.2017 21:50 8,8 C 8,8 C 9,0 C 60 % 1020,8 hPa 0,0 l/m 1,6 km/h (1 Bft) NO 45 0 min 0,000 mm 0 W/m 1,5 C 8,8 C 9,7 km/h (2 Bft) 100 %
25.03.2017 22:00 8,8 C 8,8 C 8,8 C 59 % 1020,8 hPa 0,0 l/m 1,6 km/h (1 Bft) NO 45 0 min 0,025 mm 0 W/m 1,2 C 8,8 C 9,7 km/h (2 Bft) 100 %
25.03.2017 22:10 8,8 C 8,7 C 8,8 C 58 % 1020,8 hPa 0,0 l/m 3,2 km/h (1 Bft) NO 45 0 min 0,000 mm 0 W/m 1,0 C 8,8 C 19,3 km/h (3 Bft) 100 %
25.03.2017 22:20 8,8 C 8,8 C 8,8 C 60 % 1020,8 hPa 0,0 l/m 1,6 km/h (1 Bft) NO 45 0 min 0,000 mm 0 W/m 1,5 C 8,8 C 9,7 km/h (2 Bft) 100 %
25.03.2017 22:30 8,6 C 8,6 C 8,8 C 59 % 1020,8 hPa 0,0 l/m 0,0 km/h (0 Bft) NO 45 0 min 0,000 mm 0 W/m 1,0 C 8,6 C 1,6 km/h (1 Bft) 100 %
25.03.2017 22:40 8,4 C 8,4 C 8,6 C 60 % 1020,7 hPa 0,0 l/m 1,6 km/h (1 Bft) NO 45 0 min 0,000 mm 0 W/m 1,1 C 8,4 C 17,7 km/h (3 Bft) 100 %
25.03.2017 22:50 8,3 C 8,3 C 8,4 C 60 % 1020,7 hPa 0,0 l/m 1,6 km/h (1 Bft) NO 45 0 min 0,000 mm 0 W/m 1,0 C 8,3 C 6,4 km/h (2 Bft) 100 %
25.03.2017 23:00 8,1 C 8,1 C 8,3 C 61 % 1020,8 hPa 0,0 l/m 0,0 km/h (0 Bft) NO 45 0 min 0,025 mm 0 W/m 1,0 C 8,1 C 9,7 km/h (2 Bft) 100 %
25.03.2017 23:10 7,9 C 7,9 C 8,1 C 61 % 1020,9 hPa 0,0 l/m 1,6 km/h (1 Bft) NO 45 0 min 0,000 mm 0 W/m 0,9 C 7,9 C 9,7 km/h (2 Bft) 100 %
25.03.2017 23:20 7,7 C 7,7 C 7,9 C 61 % 1020,8 hPa 0,0 l/m 1,6 km/h (1 Bft) NO 45 0 min 0,000 mm 0 W/m 0,7 C 7,7 C 16,1 km/h (3 Bft) 100 %
25.03.2017 23:30 7,7 C 7,7 C 7,7 C 62 % 1020,9 hPa 0,0 l/m 0,0 km/h (0 Bft) O-NO 67 0 min 0,000 mm 0 W/m 0,9 C 7,7 C 11,3 km/h (2 Bft) 91 %
25.03.2017 23:40 7,5 C 7,5 C 7,7 C 62 % 1020,8 hPa 0,0 l/m 0,0 km/h (0 Bft) NO 45 0 min 0,000 mm 0 W/m 0,7 C 7,5 C 6,4 km/h (2 Bft) 100 %
25.03.2017 23:50 7,4 C 7,4 C 7,5 C 62 % 1020,9 hPa 0,0 l/m 0,0 km/h (0 Bft) N-NO 22 0 min 0,000 mm 0 W/m 0,6 C 7,4 C 3,2 km/h (1 Bft) 100 %
_ Min-Zeit 06:30 06:30 06:40 15:30 18:10 - 00:00 - - - - - 23:50 06:30 00:20 02:50
Minimum _ 2,7 C 2,7 C 2,7 C 40 % 1020,5 hPa - 0,0 km/h (0 Bft) - - - - - 0,6 C 2,7 C 0,0 km/h (0 Bft) 89 %
_ Max-Zeit 14:50 15:10 14:50 00:00 01:10 00:00 13:10 - - 07:50 13:00 12:20 11:20 15:00 16:20 00:20
Maximum _ 15,1 C 15,1 C 15,1 C 91 % 1028,0 hPa 0,0 l/m 9,7 km/h
NO (2 Bft)
- - 10 min 0,381 mm 701 W/m 5,2 C 15,1 C 32,2 km/h
NO (5 Bft)
100 %
Durchschnitt _ 8,6 C 8,5 C 8,6 C 69 % 1024,3 hPa #0,0 l/m 2,7 km/h (1 Bft) NO - #7:00 h #2,311 mm 336 W/m 2,6 C 8,5 C 11,0 km/h (2 Bft) 99 %
PRIVATE WETTERSTATION BILLIGHEIM-ALLFELD - www.neckar-odenwald-wetter.de - Holger Sonntag